Time;durP1;ratioP1;P1;durP2;ratioP2;P2;SDS_P1;SDS_P2;PMS_P1;PMS_P2;Temp;Humidity;BMP_temperature;BMP_pressure;BME280_temperature;BME280_humidity;BME280_pressure;Samples;Min_cycle;Max_cycle;Signal;HPM_P1;HPM_P2
2023/09/18 00:00:25;;;;;;;14.73;7.10;;;;;;;18.63;100.00;100686.03;5055858;27;97337;-27
2023/09/18 00:02:50;;;;;;;14.80;7.53;;;;;;;18.60;100.00;100669.88;5055391;27;96695;-28
2023/09/18 00:05:15;;;;;;;17.85;8.23;;;;;;;18.65;100.00;100681.25;5055773;27;96951;-27
2023/09/18 00:07:42;;;;;;;14.43;7.40;;;;;;;18.62;99.83;100665.09;5055818;27;97570;-28
2023/09/18 00:10:11;;;;;;;13.00;7.18;;;;;;;18.65;100.00;100672.16;5037256;27;101414;-27
2023/09/18 00:12:38;;;;;;;13.82;6.65;;;;;;;18.65;100.00;100664.78;5037207;27;98192;-29
2023/09/18 00:15:04;;;;;;;12.50;7.40;;;;;;;18.61;100.00;100649.66;5037272;27;96990;-27
2023/09/18 00:17:30;;;;;;;15.38;8.02;;;;;;;18.61;100.00;100646.91;5036905;27;102395;-27
2023/09/18 00:19:55;;;;;;;13.55;7.43;;;;;;;18.60;100.00;100636.97;5055806;27;97827;-27
2023/09/18 00:22:21;;;;;;;14.10;7.68;;;;;;;18.61;100.00;100635.94;5055435;27;96475;-27
2023/09/18 00:24:46;;;;;;;13.15;6.97;;;;;;;18.70;100.00;100638.78;5055528;27;96835;-27
2023/09/18 00:27:11;;;;;;;15.15;7.63;;;;;;;18.66;100.00;100641.84;5054658;27;98391;-27
2023/09/18 00:29:37;;;;;;;12.07;7.00;;;;;;;18.72;100.00;100643.09;5055353;27;97503;-27
2023/09/18 00:32:02;;;;;;;13.20;7.72;;;;;;;18.65;100.00;100625.53;5055383;27;96721;-27
2023/09/18 00:34:31;;;;;;;12.95;6.95;;;;;;;18.71;99.99;100621.28;5055668;27;96778;-27
2023/09/18 00:36:57;;;;;;;15.05;6.60;;;;;;;18.67;100.00;100605.16;5036719;27;101237;-28
2023/09/18 00:39:22;;;;;;;16.55;7.18;;;;;;;18.71;100.00;100600.22;5055284;27;97807;-27
2023/09/18 00:41:51;;;;;;;14.65;7.32;;;;;;;18.71;100.00;100597.50;5055352;27;96680;-27
2023/09/18 00:44:16;;;;;;;14.70;7.00;;;;;;;18.66;99.91;100567.78;5037004;27;96891;-27
2023/09/18 00:46:43;;;;;;;12.77;6.82;;;;;;;18.67;100.00;100565.88;5054855;27;97533;-27
2023/09/18 00:49:10;;;;;;;13.68;7.50;;;;;;;18.65;100.00;100541.34;5036454;27;101066;-27
2023/09/18 00:51:35;;;;;;;12.65;7.03;;;;;;;18.67;100.00;100535.69;5036257;27;97218;-28
2023/09/18 00:54:01;;;;;;;11.27;6.88;;;;;;;18.70;100.00;100535.38;5055486;27;96852;-29
2023/09/18 00:56:26;;;;;;;12.73;7.75;;;;;;;18.70;100.00;100537.28;5055125;27;97875;-26
2023/09/18 00:58:52;;;;;;;14.20;7.65;;;;;;;18.66;100.00;100537.59;5054490;27;99417;-27
2023/09/18 01:01:22;;;;;;;12.20;7.32;;;;;;;18.66;100.00;100531.22;5054689;27;96699;-27
2023/09/18 01:03:49;;;;;;;15.43;7.13;;;;;;;18.69;100.00;100533.66;5035675;27;97628;-27
2023/09/18 01:06:15;;;;;;;14.40;7.10;;;;;;;18.70;100.00;100526.28;5036292;27;101173;-27
2023/09/18 01:08:40;;;;;;;15.40;7.28;;;;;;;18.65;100.00;100519.38;5055105;27;97774;-28
2023/09/18 01:11:37;;;;;;;11.73;6.40;;;;;;;18.67;100.00;100531.06;5055283;27;96648;-28
2023/09/18 01:14:13;;;;;;;10.57;6.13;;;;;;;18.70;100.00;100537.28;5054589;27;96699;-27
2023/09/18 01:16:50;;;;;;;11.18;6.28;;;;;;;18.71;100.00;100539.88;5054374;27;97483;-27
2023/09/18 01:19:16;;;;;;;11.32;6.50;;;;;;;18.68;100.00;100529.19;5054653;27;97873;-27
2023/09/18 01:21:42;;;;;;;16.00;7.25;;;;;;;18.72;100.00;100540.72;5054772;27;96517;-28
2023/09/18 01:24:07;;;;;;;11.45;6.78;;;;;;;18.67;100.00;100531.06;5054226;27;96861;-27
2023/09/18 01:26:33;;;;;;;12.02;6.57;;;;;;;18.75;100.00;100541.25;5054544;27;98453;-28
2023/09/18 01:28:58;;;;;;;12.55;7.28;;;;;;;18.71;100.00;100533.50;5054256;27;99298;-27
2023/09/18 01:31:23;;;;;;;12.73;6.65;;;;;;;18.73;100.00;100534.22;5054169;27;96494;-27
2023/09/18 01:33:49;;;;;;;10.60;6.63;;;;;;;18.76;100.00;100531.13;5054696;27;96924;-27
2023/09/18 01:36:17;;;;;;;10.90;6.20;;;;;;;18.75;100.00;100515.72;5035759;27;101131;-27
2023/09/18 01:38:44;;;;;;;10.77;6.40;;;;;;;18.77;100.00;100516.44;5035595;27;98781;-27
2023/09/18 01:41:09;;;;;;;11.35;6.65;;;;;;;18.76;100.00;100509.19;5035281;27;96892;-27
2023/09/18 01:43:35;;;;;;;11.48;6.15;;;;;;;18.82;100.00;100512.22;5054096;27;96945;-27
2023/09/18 01:46:00;;;;;;;11.05;6.25;;;;;;;18.83;100.00;100515.81;5053558;27;99916;-27
2023/09/18 01:48:26;;;;;;;8.50;5.93;;;;;;;18.81;100.00;100513.25;5053995;27;99224;-27
2023/09/18 01:50:51;;;;;;;13.07;6.68;;;;;;;18.77;99.40;100514.56;5054415;27;96652;-28
2023/09/18 01:53:17;;;;;;;7.43;5.07;;;;;;;18.79;99.60;100525.41;5035687;27;96817;-28
2023/09/18 01:55:42;;;;;;;12.00;6.38;;;;;;;18.78;99.41;100523.66;5054364;27;97374;-27
2023/09/18 01:58:09;;;;;;;8.43;5.30;;;;;;;18.78;99.96;100526.41;5054543;27;97781;-28
2023/09/18 02:00:34;;;;;;;11.65;6.53;;;;;;;18.79;100.00;100539.13;5035750;27;96516;-28
2023/09/18 02:02:59;;;;;;;11.30;5.68;;;;;;;18.79;100.00;100539.97;5054099;27;96845;-27
2023/09/18 02:05:25;;;;;;;11.98;5.97;;;;;;;18.77;100.00;100536.50;5053430;27;98026;-28
2023/09/18 02:07:51;;;;;;;10.45;6.47;;;;;;;18.81;100.00;100548.06;5053577;27;97774;-28
2023/09/18 02:10:16;;;;;;;10.13;5.80;;;;;;;18.80;100.00;100536.19;5035445;27;96688;-27
2023/09/18 02:12:41;;;;;;;9.45;5.45;;;;;;;18.85;100.00;100539.38;5053797;27;96798;-27
2023/09/18 02:15:09;;;;;;;9.63;5.53;;;;;;;18.84;100.00;100540.38;5053658;27;97394;-27
2023/09/18 02:17:35;;;;;;;8.73;5.05;;;;;;;18.85;100.00;100539.38;5053546;27;97887;-27
2023/09/18 02:20:04;;;;;;;9.55;4.85;;;;;;;18.87;100.00;100537.31;5053710;27;96544;-27
2023/09/18 02:22:31;;;;;;;11.65;5.05;;;;;;;18.93;100.00;100533.09;5053683;27;96927;-27
2023/09/18 02:24:58;;;;;;;6.85;4.72;;;;;;;18.95;100.00;100528.31;5035181;27;100690;-27
2023/09/18 02:27:23;;;;;;;8.35;4.70;;;;;;;18.97;100.00;100517.16;5035186;27;100896;-27
2023/09/18 02:29:50;;;;;;;9.82;5.00;;;;;;;18.98;100.00;100519.75;5052626;27;96874;-27
2023/09/18 02:32:15;;;;;;;7.65;4.93;;;;;;;18.98;100.00;100496.94;5035126;27;96998;-27
2023/09/18 02:34:40;;;;;;;9.85;5.13;;;;;;;19.00;100.00;100494.91;5053122;27;99324;-27
2023/09/18 02:37:06;;;;;;;8.38;4.97;;;;;;;18.99;100.00;100480.28;5053549;27;97242;-27
2023/09/18 02:39:31;;;;;;;8.15;4.75;;;;;;;18.97;100.00;100467.75;5053577;27;96559;-27
2023/09/18 02:41:56;;;;;;;9.10;5.40;;;;;;;19.02;100.00;100459.88;5053210;27;97035;-27
2023/09/18 02:44:22;;;;;;;8.48;5.28;;;;;;;19.03;100.00;100457.00;5052797;27;99318;-28
2023/09/18 02:46:47;;;;;;;7.78;4.80;;;;;;;19.00;100.00;100440.84;5053784;27;97431;-28
2023/09/18 02:49:12;;;;;;;11.57;5.32;;;;;;;18.98;100.00;100409.09;5053127;27;96594;-27
2023/09/18 02:51:38;;;;;;;9.73;4.72;;;;;;;19.04;100.00;100408.44;5053098;27;96871;-27
2023/09/18 02:54:03;;;;;;;8.82;5.10;;;;;;;19.01;100.00;100408.75;5052370;27;99385;-28
2023/09/18 02:56:29;;;;;;;7.38;4.32;;;;;;;19.04;100.00;100394.72;5052989;27;98609;-27
2023/09/18 02:58:54;;;;;;;11.20;5.63;;;;;;;19.03;100.00;100396.59;5052990;27;96652;-28
2023/09/18 03:01:19;;;;;;;8.93;5.22;;;;;;;19.00;100.00;100401.56;5053071;27;96883;-28
2023/09/18 03:03:45;;;;;;;8.77;4.72;;;;;;;18.99;100.00;100400.69;5052895;27;97553;-27
2023/09/18 03:06:10;;;;;;;9.70;5.30;;;;;;;18.98;100.00;100382.50;5052958;27;97259;-27
2023/09/18 03:08:35;;;;;;;8.18;5.05;;;;;;;19.01;100.00;100382.16;5053087;27;96599;-27
2023/09/18 03:11:01;;;;;;;10.52;5.10;;;;;;;19.00;100.00;100391.44;5053294;27;96889;-27
2023/09/18 03:13:30;;;;;;;6.95;4.88;;;;;;;18.95;100.00;100398.41;5052784;27;97932;-28
2023/09/18 03:15:56;;;;;;;9.63;4.60;;;;;;;19.00;100.00;100434.50;5034398;27;100869;-27
2023/09/18 03:18:21;;;;;;;6.38;3.83;;;;;;;18.99;100.00;100457.47;5052329;27;96467;-27
2023/09/18 03:20:48;;;;;;;9.32;4.95;;;;;;;18.96;100.00;100457.78;5052657;27;97162;-27
2023/09/18 03:23:14;;;;;;;9.48;4.93;;;;;;;18.94;100.00;100457.09;5052665;27;98169;-27
2023/09/18 03:25:39;;;;;;;7.95;4.13;;;;;;;18.99;100.00;100433.63;5052894;27;97460;-27
2023/09/18 03:28:05;;;;;;;8.65;4.72;;;;;;;19.01;100.00;100428.84;5052275;27;96680;-27
2023/09/18 03:30:30;;;;;;;8.68;4.35;;;;;;;19.08;100.00;100437.31;5052288;27;96943;-27
2023/09/18 03:32:55;;;;;;;6.45;3.63;;;;;;;19.08;100.00;100448.28;5052379;27;99821;-27
2023/09/18 03:35:21;;;;;;;5.45;3.30;;;;;;;19.09;100.00;100450.88;5052632;27;97812;-27
2023/09/18 03:37:47;;;;;;;5.30;3.00;;;;;;;19.09;100.00;100444.50;5052591;27;96536;-27
2023/09/18 03:40:13;;;;;;;6.55;2.55;;;;;;;19.10;100.00;100430.63;5034052;27;96801;-27
2023/09/18 03:42:39;;;;;;;4.90;2.92;;;;;;;19.14;100.00;100433.03;5033546;27;101089;-27
2023/09/18 03:45:09;;;;;;;4.65;2.85;;;;;;;19.14;100.00;100457.75;5051519;27;99258;-29
2023/09/18 03:47:35;;;;;;;9.30;3.47;;;;;;;19.13;100.00;100467.03;5033972;27;96582;-27
2023/09/18 03:50:03;;;;;;;8.88;3.03;;;;;;;19.13;100.00;100489.00;5033836;27;96988;-27
2023/09/18 03:52:29;;;;;;;7.18;3.00;;;;;;;19.10;100.00;100465.47;5033902;27;102012;-27
2023/09/18 03:54:54;;;;;;;10.45;2.97;;;;;;;19.12;100.00;100463.44;5051972;27;99299;-27
2023/09/18 03:57:20;;;;;;;3.95;2.22;;;;;;;19.13;100.00;100442.31;5052039;27;97886;-28
2023/09/18 03:59:45;;;;;;;4.75;2.47;;;;;;;19.05;100.00;100415.66;5052921;27;96852;-28
2023/09/18 04:02:10;;;;;;;5.13;2.80;;;;;;;19.10;100.00;100405.06;5052119;27;98088;-28
2023/09/18 04:04:36;;;;;;;7.88;2.33;;;;;;;19.16;100.00;100378.84;5051646;27;97821;-27
2023/09/18 04:07:06;;;;;;;4.25;2.40;;;;;;;19.13;100.00;100354.44;5051753;27;96592;-27
2023/09/18 04:09:31;;;;;;;5.10;3.03;;;;;;;19.14;100.00;100351.56;5033645;27;96892;-27
2023/09/18 04:11:56;;;;;;;6.20;2.90;;;;;;;19.18;100.00;100365.81;5051892;27;101250;-27
2023/09/18 04:14:22;;;;;;;3.38;2.20;;;;;;;19.16;100.00;100349.47;5051709;27;99557;-27
2023/09/18 04:16:47;;;;;;;5.68;2.70;;;;;;;19.17;100.00;100359.47;5051848;27;96542;-27
2023/09/18 04:19:13;;;;;;;4.53;2.63;;;;;;;19.18;100.00;100350.19;5052058;27;96943;-27
2023/09/18 04:21:38;;;;;;;6.68;2.88;;;;;;;19.18;100.00;100350.19;5033473;27;100882;-27
2023/09/18 04:24:04;;;;;;;3.92;2.28;;;;;;;19.13;100.00;100341.59;5052088;27;98980;-27
2023/09/18 04:26:30;;;;;;;3.80;2.25;;;;;;;19.15;100.00;100335.94;5033697;27;96878;-27
2023/09/18 04:28:57;;;;;;;5.40;2.90;;;;;;;19.18;100.00;100347.44;5033599;27;96864;-27
2023/09/18 04:31:22;;;;;;;6.22;2.78;;;;;;;19.14;100.00;100350.66;5032493;27;100864;-27
2023/09/18 04:33:48;;;;;;;7.05;2.92;;;;;;;19.15;100.00;100367.00;5051599;27;97372;-29
2023/09/18 04:36:13;;;;;;;4.53;2.72;;;;;;;19.14;100.00;100364.41;5051688;27;96839;-27
2023/09/18 04:38:39;;;;;;;7.93;2.70;;;;;;;19.08;100.00;100353.03;5051943;27;96839;-27
2023/09/18 04:41:06;;;;;;;5.78;2.67;;;;;;;19.08;100.00;100355.78;5054668;27;99420;-27
2023/09/18 04:43:33;;;;;;;6.40;2.50;;;;;;;19.07;100.00;100364.22;5055026;27;97218;-27
2023/09/18 04:45:58;;;;;;;4.82;2.63;;;;;;;19.14;100.00;100373.53;5054707;27;98060;-27
2023/09/18 04:48:23;;;;;;;5.50;2.50;;;;;;;19.06;100.00;100360.59;5055554;27;96841;-27
2023/09/18 04:50:49;;;;;;;3.47;1.98;;;;;;;19.13;100.00;100376.41;5055269;27;97426;-27
2023/09/18 04:53:14;;;;;;;5.70;2.33;;;;;;;19.09;100.00;100354.78;5054746;27;99451;-27
2023/09/18 04:55:40;;;;;;;6.78;2.35;;;;;;;19.14;100.00;100351.56;5054759;27;96731;-28
2023/09/18 04:58:06;;;;;;;3.35;2.22;;;;;;;19.09;100.00;100334.69;5055049;27;96783;-27
2023/09/18 05:00:33;;;;;;;4.47;2.30;;;;;;;19.10;100.00;100328.19;5036359;27;101403;-27
2023/09/18 05:03:01;;;;;;;5.45;2.33;;;;;;;19.11;100.00;100321.66;5036092;27;101191;-28
2023/09/18 05:05:26;;;;;;;3.03;2.08;;;;;;;19.14;100.00;100315.88;5036473;27;97049;-27
2023/09/18 05:07:52;;;;;;;5.00;2.70;;;;;;;19.14;100.00;100317.72;5055337;27;96803;-27
2023/09/18 05:10:17;;;;;;;5.18;2.20;;;;;;;19.12;100.00;100317.91;5054435;27;99313;-27
2023/09/18 05:12:42;;;;;;;3.47;2.15;;;;;;;19.13;100.00;100316.88;5055292;27;97279;-27
2023/09/18 05:15:10;;;;;;;8.05;2.72;;;;;;;19.10;100.00;100298.00;5054848;27;96637;-27
2023/09/18 05:17:51;;;;;;;4.78;2.72;;;;;;;19.12;100.00;100311.56;5036173;27;96995;-27
2023/09/18 05:20:17;;;;;;;;;;;;;;;19.12;100.00;100325.28;5054612;27;98204;-28
2023/09/18 05:22:43;;;;;;;6.07;1.98;;;;;;;19.09;100.00;100315.47;5054415;27;99111;-27
2023/09/18 05:25:10;;;;;;;7.32;3.15;;;;;;;19.04;100.00;100312.34;5036240;27;96680;-27
2023/09/18 05:27:36;;;;;;;4.93;2.63;;;;;;;19.04;100.00;100321.47;5036315;27;96790;-27
2023/09/18 05:30:02;;;;;;;5.25;2.53;;;;;;;19.04;100.00;100320.59;5035534;27;100926;-27
2023/09/18 05:32:27;;;;;;;5.10;2.50;;;;;;;19.01;100.00;100309.94;5054593;27;97745;-27
2023/09/18 05:34:52;;;;;;;7.13;2.80;;;;;;;19.04;100.00;100317.84;5054564;27;96585;-27
2023/09/18 05:37:18;;;;;;;4.43;2.25;;;;;;;19.02;100.00;100300.66;5054667;27;96900;-28
2023/09/18 05:39:43;;;;;;;4.85;2.90;;;;;;;18.99;100.00;100306.50;5035900;27;99449;-27
2023/09/18 05:42:08;;;;;;;5.70;2.90;;;;;;;18.99;100.00;100303.75;5054425;27;97237;-27
2023/09/18 05:44:34;;;;;;;5.80;2.72;;;;;;;19.06;100.00;100307.56;5053403;27;96637;-27
2023/09/18 05:46:59;;;;;;;6.75;2.90;;;;;;;19.05;100.00;100311.34;5054076;27;96853;-27
2023/09/18 05:49:25;;;;;;;4.05;2.70;;;;;;;19.04;100.00;100306.84;5035835;27;100935;-27
2023/09/18 05:51:50;;;;;;;5.47;2.45;;;;;;;19.03;100.00;100307.91;5053905;27;97772;-27
2023/09/18 05:54:15;;;;;;;7.18;2.90;;;;;;;19.06;100.00;100318.53;5054238;27;96556;-27
2023/09/18 05:56:41;;;;;;;7.32;2.45;;;;;;;19.04;100.00;100326.97;5054141;27;96898;-27
2023/09/18 05:59:07;;;;;;;4.65;2.60;;;;;;;19.05;100.00;100319.59;5054003;27;97916;-28
2023/09/18 06:01:32;;;;;;;4.40;2.50;;;;;;;19.03;100.00;100319.72;5054397;27;97782;-27
2023/09/18 06:03:58;;;;;;;6.43;2.17;;;;;;;19.05;100.00;100327.81;5035427;27;96694;-27
2023/09/18 06:06:25;;;;;;;5.15;2.88;;;;;;;19.02;100.00;100326.25;5035495;27;96883;-27
2023/09/18 06:08:55;;;;;;;3.53;2.30;;;;;;;19.03;100.00;100327.97;5034880;27;101289;-28
2023/09/18 06:11:20;;;;;;;3.00;2.22;;;;;;;19.00;100.00;100333.78;5035358;27;100829;-28
2023/09/18 06:13:45;;;;;;;4.40;2.42;;;;;;;19.00;100.00;100338.44;5053593;27;96716;-27
2023/09/18 06:16:11;;;;;;;4.13;2.50;;;;;;;19.01;100.00;100343.75;5053553;27;101062;-27
2023/09/18 06:18:38;;;;;;;4.35;2.38;;;;;;;19.04;100.00;100357.16;5053770;27;97509;-27
2023/09/18 06:21:04;;;;;;;5.28;2.45;;;;;;;19.03;100.00;100341.69;5035240;27;101230;-27
2023/09/18 06:23:29;;;;;;;5.30;2.22;;;;;;;19.03;100.00;100346.34;5053580;27;96803;-27
2023/09/18 06:25:56;;;;;;;5.00;2.42;;;;;;;18.98;100.00;100340.47;5053971;27;96869;-28
2023/09/18 06:28:22;;;;;;;4.95;2.05;;;;;;;18.99;100.00;100337.53;5053103;27;99655;-27
2023/09/18 06:30:48;;;;;;;3.15;2.08;;;;;;;18.98;100.00;100334.97;5034787;27;101106;-27
2023/09/18 06:33:13;;;;;;;3.20;1.95;;;;;;;18.94;100.00;100339.91;5052851;27;96612;-27
2023/09/18 06:35:39;;;;;;;3.75;1.90;;;;;;;18.92;100.00;100335.63;5035169;27;96937;-27
2023/09/18 06:38:06;;;;;;;4.05;2.08;;;;;;;18.98;100.00;100349.56;5053246;27;99499;-28
2023/09/18 06:40:32;;;;;;;5.60;2.28;;;;;;;18.96;100.00;100343.38;5053225;27;97809;-27
2023/09/18 06:43:00;;;;;;;4.55;2.33;;;;;;;18.92;100.00;100339.22;5052966;27;96739;-28
2023/09/18 06:45:27;;;;;;;5.40;2.08;;;;;;;18.92;100.00;100335.63;5052585;27;96881;-28
2023/09/18 06:47:53;;;;;;;4.38;1.98;;;;;;;18.91;100.00;100336.66;5034641;27;100863;-29
2023/09/18 06:50:18;;;;;;;4.38;1.80;;;;;;;18.87;100.00;100339.69;5053330;27;98933;-27
2023/09/18 06:52:44;;;;;;;2.90;1.48;;;;;;;18.87;100.00;100336.94;5053342;27;96541;-27
2023/09/18 06:55:09;;;;;;;4.43;1.75;;;;;;;18.84;100.00;100337.28;5053270;27;96857;-27
2023/09/18 06:57:35;;;;;;;2.67;1.55;;;;;;;18.93;100.00;100348.34;5052305;27;98073;-27
2023/09/18 07:00:00;;;;;;;3.08;1.85;;;;;;;18.89;100.00;100342.28;5053124;27;97777;-27
2023/09/18 07:02:27;;;;;;;2.60;1.60;;;;;;;18.91;100.00;100336.66;5052289;27;96722;-27
2023/09/18 07:04:52;;;;;;;3.28;1.55;;;;;;;18.87;100.00;100336.94;5052659;27;96848;-27
2023/09/18 07:07:24;;;;;;;3.20;1.65;;;;;;;18.90;100.00;100344.00;5052995;27;98200;-27
2023/09/18 07:09:50;;;;;;;3.72;1.80;;;;;;;18.93;100.00;100351.06;5052687;27;99204;-28
2023/09/18 07:12:15;;;;;;;2.38;1.27;;;;;;;18.89;100.00;100345.88;5052945;27;96427;-28
2023/09/18 07:14:40;;;;;;;2.88;1.55;;;;;;;18.90;100.00;100338.50;5053456;27;96894;-27
2023/09/18 07:17:06;;;;;;;2.97;1.30;;;;;;;18.97;100.00;100339.59;5052510;27;98804;-27
2023/09/18 07:19:32;;;;;;;3.28;1.30;;;;;;;18.99;100.00;100336.69;5052492;27;99037;-27
2023/09/18 07:21:57;;;;;;;5.20;1.77;;;;;;;19.04;100.00;100345.28;5033955;27;97338;-28
2023/09/18 07:24:24;;;;;;;3.15;1.55;;;;;;;19.03;100.00;100362.81;5052488;27;96844;-28
2023/09/18 07:26:49;;;;;;;3.50;1.20;;;;;;;18.99;100.00;100359.50;5052871;27;97484;-27
2023/09/18 07:29:15;;;;;;;3.30;1.65;;;;;;;19.14;100.00;100372.63;5052547;27;97581;-27
2023/09/18 07:31:44;;;;;;;5.53;1.25;;;;;;;19.12;100.00;100367.31;5034177;27;97214;-28
2023/09/18 07:34:10;;;;;;;1.65;1.10;;;;;;;19.12;100.00;100361.84;5052778;27;96787;-27
2023/09/18 07:36:36;;;;;;;4.30;1.83;;;;;;;19.24;100.00;100376.16;5034172;27;101117;-28
2023/09/18 07:39:02;;;;;;;3.13;1.20;;;;;;;19.27;100.00;100375.81;5052715;27;97544;-27
2023/09/18 07:41:27;;;;;;;2.13;1.50;;;;;;;19.31;100.00;100382.72;5034216;27;96601;-27
2023/09/18 07:43:53;;;;;;;2.83;1.38;;;;;;;19.32;100.00;100387.19;5052573;27;96977;-28
2023/09/18 07:46:18;;;;;;;4.50;1.70;;;;;;;19.24;100.00;100378.91;5051766;27;99404;-28
2023/09/18 07:48:43;;;;;;;3.38;1.45;;;;;;;19.22;100.00;100383.69;5052237;27;98782;-27
2023/09/18 07:51:12;;;;;;;2.40;1.52;;;;;;;19.20;100.00;100380.25;5052605;27;96529;-27
2023/09/18 07:53:38;;;;;;;1.88;1.33;;;;;;;19.17;100.00;100391.56;5051969;27;96876;-28
2023/09/18 07:56:04;;;;;;;3.33;1.77;;;;;;;19.25;100.00;100391.59;5052382;27;97985;-27
2023/09/18 07:58:30;;;;;;;2.90;1.67;;;;;;;19.28;100.00;100391.25;5033795;27;100922;-27
2023/09/18 08:00:57;;;;;;;2.35;1.60;;;;;;;19.37;100.00;100392.19;5033856;27;96535;-27
2023/09/18 08:03:23;;;;;;;5.10;2.00;;;;;;;19.46;100.00;100394.81;5052159;27;96869;-27
2023/09/18 08:05:53;;;;;;;5.55;1.50;;;;;;;19.60;100.00;100408.97;5033744;27;101236;-27
2023/09/18 08:08:23;;;;;;;4.13;2.05;;;;;;;19.59;100.00;100402.59;5033417;27;100889;-27
2023/09/18 08:10:49;;;;;;;4.35;2.08;;;;;;;19.65;100.00;100406.59;5051522;27;96719;-27
2023/09/18 08:13:16;;;;;;;2.90;1.83;;;;;;;19.66;99.86;100405.56;5052674;27;96740;-27
2023/09/18 08:15:41;;;;;;;3.88;1.92;;;;;;;19.83;99.70;100401.00;5055401;27;99764;-27
2023/09/18 08:18:06;;;;;;;2.47;1.65;;;;;;;;;;5055635;27;97345;-27
2023/09/18 08:20:32;;;;;;;5.27;1.80;;;;;;;19.89;99.30;100397.63;5055928;27;96416;-27
2023/09/18 08:23:01;;;;;;;4.45;1.85;;;;;;;19.91;98.13;100412.06;5037182;27;96838;-28
2023/09/18 08:25:26;;;;;;;3.35;1.92;;;;;;;19.87;98.20;100414.25;5037160;27;101296;-27
2023/09/18 08:27:52;;;;;;;2.47;1.77;;;;;;;19.92;98.08;100409.13;5037441;27;99657;-27
2023/09/18 08:30:20;;;;;;;3.08;1.77;;;;;;;20.04;97.99;100422.56;5055217;27;96553;-27
2023/09/18 08:32:46;;;;;;;3.42;1.55;;;;;;;19.96;97.00;100419.81;5055416;27;96833;-28
2023/09/18 08:35:12;;;;;;;3.00;1.90;;;;;;;19.91;97.20;100415.66;5036342;27;100936;-29
2023/09/18 08:37:37;;;;;;;3.08;1.70;;;;;;;19.94;98.16;100418.06;5036836;27;100921;-28
2023/09/18 08:40:09;;;;;;;5.30;1.60;;;;;;;19.89;97.55;100409.47;5055278;27;96615;-27
2023/09/18 08:42:37;;;;;;;3.58;1.58;;;;;;;19.85;97.71;100418.22;5036913;27;96526;-30
2023/09/18 08:45:11;;;;;;;3.53;1.63;;;;;;;19.77;97.47;100415.44;5036330;27;101329;-27
2023/09/18 08:47:40;;;;;;;4.90;1.63;;;;;;;19.76;97.51;100428.31;5055321;27;97378;-27
2023/09/18 08:50:06;;;;;;;9.98;2.03;;;;;;;19.72;97.65;100429.66;5036828;27;96748;-28
2023/09/18 08:52:35;;;;;;;4.82;2.00;;;;;;;19.68;98.18;100423.63;5055850;27;96921;-27
2023/09/18 08:55:01;;;;;;;3.47;1.90;;;;;;;19.65;98.20;100428.56;5036549;27;101100;-27
2023/09/18 08:57:28;;;;;;;2.17;1.55;;;;;;;19.64;97.66;100443.31;5036610;27;101135;-29
2023/09/18 08:59:54;;;;;;;2.75;2.00;;;;;;;19.54;97.93;100426.94;5036103;27;97253;-27
2023/09/18 09:02:20;;;;;;;3.25;1.70;;;;;;;19.51;97.67;100439.13;5036592;27;97049;-27
2023/09/18 09:04:45;;;;;;;3.45;1.88;;;;;;;19.42;97.40;100442.84;5054354;27;99794;-27
2023/09/18 09:07:10;;;;;;;2.72;1.70;;;;;;;19.44;98.00;100456.44;5054832;27;97754;-27
2023/09/18 09:09:36;;;;;;;4.93;1.90;;;;;;;19.34;98.04;100456.53;5055116;27;96614;-27
2023/09/18 09:12:01;;;;;;;2.50;1.45;;;;;;;19.37;98.06;100464.44;5055329;27;96819;-27
2023/09/18 09:14:29;;;;;;;2.20;1.50;;;;;;;19.37;98.41;100458.09;5054798;27;97343;-29
2023/09/18 09:16:57;;;;;;;2.22;1.42;;;;;;;19.34;98.02;100456.53;5054713;27;99202;-27
2023/09/18 09:19:42;;;;;;;7.65;1.88;;;;;;;19.33;97.52;100449.34;5036498;27;96710;-27
2023/09/18 09:22:09;;;;;;;3.35;1.48;;;;;;;19.37;96.73;100456.22;5036407;27;96699;-28
2023/09/18 09:24:39;;;;;;;2.22;1.45;;;;;;;19.40;96.70;100464.16;5053636;27;99602;-28
2023/09/18 09:27:04;;;;;;;1.90;1.50;;;;;;;19.39;96.04;100465.16;5035724;27;100897;-28
2023/09/18 09:29:31;;;;;;;5.07;1.67;;;;;;;19.32;96.18;100455.84;5054546;27;96577;-28
2023/09/18 09:32:11;;;;;;;3.10;1.67;;;;;;;19.39;96.14;100478.88;5054581;27;96871;-27
2023/09/18 09:34:37;;;;;;;2.55;1.80;;;;;;;19.38;95.63;100466.19;5036061;27;101356;-27
2023/09/18 09:37:04;;;;;;;4.20;1.75;;;;;;;19.40;96.13;100464.16;5054511;27;97951;-29
2023/09/18 09:39:30;;;;;;;2.47;1.58;;;;;;;19.51;95.61;100461.13;5036100;27;96589;-28
2023/09/18 09:42:03;;;;;;;2.95;1.85;;;;;;;19.69;95.42;100457.50;5054568;27;96844;-27
2023/09/18 09:44:32;;;;;;;2.45;1.52;;;;;;;19.69;94.73;100468.47;5053999;27;98121;-27
2023/09/18 09:46:59;;;;;;;2.85;1.70;;;;;;;19.77;94.34;100473.16;5054496;27;97284;-27
2023/09/18 09:49:27;;;;;;;5.10;1.80;;;;;;;19.71;94.81;100461.78;5035478;27;96804;-27
2023/09/18 09:51:54;;;;;;;3.63;2.10;;;;;;;19.87;93.16;100466.50;5035862;27;96987;-28
2023/09/18 09:54:34;;;;;;;2.15;1.63;;;;;;;20.34;93.09;100468.75;5053974;27;99394;-28
2023/09/18 09:57:02;;;;;;;2.25;1.70;;;;;;;20.62;90.93;100476.78;5054415;27;98362;-27
2023/09/18 09:59:29;;;;;;;2.97;1.75;;;;;;;20.79;90.60;100475.75;5054489;27;96802;-27
2023/09/18 10:01:56;;;;;;;2.70;1.52;;;;;;;20.88;88.87;100473.88;5035587;27;96943;-28
2023/09/18 10:04:23;;;;;;;8.80;2.22;;;;;;;21.07;87.57;100467.19;5053556;27;97518;-27
2023/09/18 10:06:58;;;;;;;3.70;1.52;;;;;;;21.36;84.64;100463.03;5035881;27;101261;-28
2023/09/18 10:09:28;;;;;;;6.18;1.80;;;;;;;21.60;84.11;100478.69;5035591;27;96615;-27
2023/09/18 10:11:56;;;;;;;3.08;1.77;;;;;;;21.57;84.36;100479.91;5053658;27;96867;-27
2023/09/18 10:14:31;;;;;;;2.40;1.98;;;;;;;21.38;82.20;100466.44;5052988;27;99665;-28
2023/09/18 10:16:58;;;;;;;2.95;1.70;;;;;;;21.29;85.00;100473.88;5053978;27;97973;-27
2023/09/18 10:19:37;;;;;;;3.13;1.92;;;;;;;21.26;85.49;100463.22;5035424;27;96560;-27
2023/09/18 10:22:20;;;;;;;2.10;1.60;;;;;;;21.35;84.90;100467.66;5035375;27;96757;-28
2023/09/18 10:24:47;;;;;;;2.55;1.83;;;;;;;21.68;84.11;100458.50;5053547;27;99495;-28
2023/09/18 10:27:14;;;;;;;3.95;1.83;;;;;;;22.00;81.91;100460.28;5035074;27;100876;-27
2023/09/18 10:29:41;;;;;;;3.08;1.95;;;;;;;21.98;81.36;100457.72;5053128;27;96646;-27
2023/09/18 10:32:08;;;;;;;2.05;1.60;;;;;;;22.08;80.29;100462.16;5035543;27;97050;-27
2023/09/18 10:34:34;;;;;;;4.40;1.50;;;;;;;22.21;79.76;100468.00;5035103;27;101565;-28
2023/09/18 10:37:08;;;;;;;2.97;2.05;;;;;;;22.28;77.38;100446.91;5033745;27;100884;-27
2023/09/18 10:39:35;;;;;;;3.42;2.10;;;;;;;22.63;77.47;100466.72;5053267;27;96466;-28
2023/09/18 10:42:03;;;;;;;1.92;1.40;;;;;;;22.82;77.16;100455.19;5035078;27;96892;-27
2023/09/18 10:44:29;;;;;;;6.78;2.20;;;;;;;22.89;74.71;100460.84;5052580;27;99354;-27
2023/09/18 10:46:55;;;;;;;5.30;1.77;;;;;;;22.76;75.98;100455.06;5034805;27;100867;-27
2023/09/18 10:49:21;;;;;;;5.28;1.92;;;;;;;22.83;74.71;100451.38;5053424;27;96558;-28
2023/09/18 10:51:48;;;;;;;3.83;1.27;;;;;;;22.94;76.34;100457.53;5034895;27;96972;-27
2023/09/18 10:54:29;;;;;;;3.17;2.03;;;;;;;22.85;74.80;100452.06;5053249;27;96779;-28
2023/09/18 10:56:56;;;;;;;2.92;1.73;;;;;;;22.39;75.32;100459.47;5053635;27;97265;-27
2023/09/18 10:59:21;;;;;;;4.50;1.70;;;;;;;22.22;77.40;100455.94;5034868;27;96785;-27
2023/09/18 11:01:48;;;;;;;3.45;1.90;;;;;;;22.20;78.08;100460.72;5052998;27;96857;-27
2023/09/18 11:04:17;;;;;;;3.03;1.75;;;;;;;22.03;76.66;100455.28;5033996;27;101205;-27
2023/09/18 11:06:55;;;;;;;3.58;1.83;;;;;;;21.94;76.90;100455.50;5034521;27;100870;-27
2023/09/18 11:09:25;;;;;;;6.88;1.98;;;;;;;21.92;77.61;100457.56;5053097;27;96622;-27
2023/09/18 11:11:57;;;;;;;3.47;1.77;;;;;;;21.96;78.63;100454.28;5034617;27;96960;-27
2023/09/18 11:14:46;;;;;;;3.70;1.90;;;;;;;21.78;77.64;100464.69;5052658;27;97950;-27